sensor_id;sensor_type;location;lat;lon;timestamp;temperature;humidity
48328;DHT22;34136;51.022;7.082;2024-01-07T07:52:15;2.30;1.00
48328;DHT22;34136;51.022;7.082;2024-01-07T07:55:01;2.20;1.00
48328;DHT22;34136;51.022;7.082;2024-01-07T07:57:47;2.20;1.00
48328;DHT22;34136;51.022;7.082;2024-01-07T08:00:33;2.20;1.00
48328;DHT22;34136;51.022;7.082;2024-01-07T08:03:19;2.30;1.00
48328;DHT22;34136;51.022;7.082;2024-01-07T08:06:05;2.40;1.00
48328;DHT22;34136;51.022;7.082;2024-01-07T08:08:51;2.40;1.00
48328;DHT22;34136;51.022;7.082;2024-01-07T08:11:37;2.30;1.00
48328;DHT22;34136;51.022;7.082;2024-01-07T08:14:24;2.40;1.00
48328;DHT22;34136;51.022;7.082;2024-01-07T08:17:10;2.50;1.00
48328;DHT22;34136;51.022;7.082;2024-01-07T08:19:56;2.40;1.00
48328;DHT22;34136;51.022;7.082;2024-01-07T08:22:42;2.50;1.00
48328;DHT22;34136;51.022;7.082;2024-01-07T08:25:28;2.40;1.00
48328;DHT22;34136;51.022;7.082;2024-01-07T08:28:17;2.30;1.00
48328;DHT22;34136;51.022;7.082;2024-01-07T08:31:04;2.40;1.00
48328;DHT22;34136;51.022;7.082;2024-01-07T08:33:49;2.40;1.00
48328;DHT22;34136;51.022;7.082;2024-01-07T08:36:35;2.40;1.00
48328;DHT22;34136;51.022;7.082;2024-01-07T08:39:21;2.40;1.00
48328;DHT22;34136;51.022;7.082;2024-01-07T08:42:07;2.30;1.00
48328;DHT22;34136;51.022;7.082;2024-01-07T08:44:53;2.40;1.00
48328;DHT22;34136;51.022;7.082;2024-01-07T08:47:39;2.30;1.00
48328;DHT22;34136;51.022;7.082;2024-01-07T08:50:25;2.30;1.00
48328;DHT22;34136;51.022;7.082;2024-01-07T08:53:11;2.30;1.00
48328;DHT22;34136;51.022;7.082;2024-01-07T08:55:57;2.30;1.00
48328;DHT22;34136;51.022;7.082;2024-01-07T08:58:43;2.40;1.00
48328;DHT22;34136;51.022;7.082;2024-01-07T09:01:29;2.40;1.00
48328;DHT22;34136;51.022;7.082;2024-01-07T09:04:14;2.40;1.00
48328;DHT22;34136;51.022;7.082;2024-01-07T09:07:01;2.20;1.00
48328;DHT22;34136;51.022;7.082;2024-01-07T09:09:47;2.30;1.00
48328;DHT22;34136;51.022;7.082;2024-01-07T09:12:32;2.20;1.00
48328;DHT22;34136;51.022;7.082;2024-01-07T09:15:18;2.20;1.00
48328;DHT22;34136;51.022;7.082;2024-01-07T09:18:05;2.20;1.00
48328;DHT22;34136;51.022;7.082;2024-01-07T09:20:51;2.20;1.00
48328;DHT22;34136;51.022;7.082;2024-01-07T09:23:36;2.20;1.00
48328;DHT22;34136;51.022;7.082;2024-01-07T09:26:22;2.20;1.00
48328;DHT22;34136;51.022;7.082;2024-01-07T09:29:08;2.20;1.00
48328;DHT22;34136;51.022;7.082;2024-01-07T09:31:54;2.10;1.00
48328;DHT22;34136;51.022;7.082;2024-01-07T09:34:40;2.20;1.00
48328;DHT22;34136;51.022;7.082;2024-01-07T09:37:26;2.20;99.90
48328;DHT22;34136;51.022;7.082;2024-01-07T09:40:12;2.20;99.90
48328;DHT22;34136;51.022;7.082;2024-01-07T09:43:01;2.10;99.90
48328;DHT22;34136;51.022;7.082;2024-01-07T09:45:47;2.20;99.90
48328;DHT22;34136;51.022;7.082;2024-01-07T09:52:13;2.30;99.90
48328;DHT22;34136;51.022;7.082;2024-01-07T09:55:22;2.20;99.90
48328;DHT22;34136;51.022;7.082;2024-01-07T09:58:20;2.20;99.90
48328;DHT22;34136;51.022;7.082;2024-01-07T10:01:10;2.10;99.90
48328;DHT22;34136;51.022;7.082;2024-01-07T10:03:59;2.10;99.90
48328;DHT22;34136;51.022;7.082;2024-01-07T10:06:48;2.10;99.90
48328;DHT22;34136;51.022;7.082;2024-01-07T10:09:33;2.00;99.90
48328;DHT22;34136;51.022;7.082;2024-01-07T10:12:28;2.00;99.90
48328;DHT22;34136;51.022;7.082;2024-01-07T10:18:46;2.00;99.90
48328;DHT22;34136;51.022;7.082;2024-01-07T10:21:42;2.10;99.90
48328;DHT22;34136;51.022;7.082;2024-01-07T10:28:26;2.00;99.90
48328;DHT22;34136;51.022;7.082;2024-01-07T10:31:31;1.90;1.40
48328;DHT22;34136;51.022;7.082;2024-01-07T10:37:44;2.10;1.40
48328;DHT22;34136;51.022;7.082;2024-01-07T10:41:00;2.30;99.90
48328;DHT22;34136;51.022;7.082;2024-01-07T10:47:43;2.20;99.90
48328;DHT22;34136;51.022;7.082;2024-01-07T10:57:55;2.40;99.90
48328;DHT22;34136;51.022;7.082;2024-01-07T16:06:46;0.30;99.90
48328;DHT22;34136;51.022;7.082;2024-01-07T16:09:32;0.20;99.90
48328;DHT22;34136;51.022;7.082;2024-01-07T16:12:18;0.20;99.90
48328;DHT22;34136;51.022;7.082;2024-01-07T16:15:04;0.20;99.90
48328;DHT22;34136;51.022;7.082;2024-01-07T16:17:51;0.30;99.90
48328;DHT22;34136;51.022;7.082;2024-01-07T16:20:37;0.30;99.90
48328;DHT22;34136;51.022;7.082;2024-01-07T16:23:22;0.40;99.90
48328;DHT22;34136;51.022;7.082;2024-01-07T16:26:08;0.40;99.90
48328;DHT22;34136;51.022;7.082;2024-01-07T16:28:54;0.40;99.90
48328;DHT22;34136;51.022;7.082;2024-01-07T16:31:40;0.40;99.90
48328;DHT22;34136;51.022;7.082;2024-01-07T16:34:26;0.40;99.90
48328;DHT22;34136;51.022;7.082;2024-01-07T16:37:12;0.40;99.90
48328;DHT22;34136;51.022;7.082;2024-01-07T16:39:58;0.40;99.90
48328;DHT22;34136;51.022;7.082;2024-01-07T16:42:44;0.40;99.90
48328;DHT22;34136;51.022;7.082;2024-01-07T16:45:30;0.30;99.90
48328;DHT22;34136;51.022;7.082;2024-01-07T16:48:19;0.30;99.90
48328;DHT22;34136;51.022;7.082;2024-01-07T16:51:08;0.40;99.90
48328;DHT22;34136;51.022;7.082;2024-01-07T16:53:57;0.40;99.90
48328;DHT22;34136;51.022;7.082;2024-01-07T16:56:46;0.30;99.90
48328;DHT22;34136;51.022;7.082;2024-01-07T16:59:32;0.30;99.90
48328;DHT22;34136;51.022;7.082;2024-01-07T17:02:18;0.40;99.90
48328;DHT22;34136;51.022;7.082;2024-01-07T17:05:03;0.50;99.90
48328;DHT22;34136;51.022;7.082;2024-01-07T17:07:49;0.50;99.90
48328;DHT22;34136;51.022;7.082;2024-01-07T17:10:35;0.50;99.90
48328;DHT22;34136;51.022;7.082;2024-01-07T17:13:21;0.60;99.90
48328;DHT22;34136;51.022;7.082;2024-01-07T17:16:07;0.50;99.90
48328;DHT22;34136;51.022;7.082;2024-01-07T17:18:53;0.60;99.90
48328;DHT22;34136;51.022;7.082;2024-01-07T17:21:39;0.50;99.90
48328;DHT22;34136;51.022;7.082;2024-01-07T17:24:26;0.40;99.90
48328;DHT22;34136;51.022;7.082;2024-01-07T17:27:12;0.50;99.90
48328;DHT22;34136;51.022;7.082;2024-01-07T17:29:57;0.50;99.90
48328;DHT22;34136;51.022;7.082;2024-01-07T17:32:43;0.60;99.90
48328;DHT22;34136;51.022;7.082;2024-01-07T17:35:30;0.50;99.90
48328;DHT22;34136;51.022;7.082;2024-01-07T17:38:16;0.50;99.90
48328;DHT22;34136;51.022;7.082;2024-01-07T17:41:01;0.50;99.90
48328;DHT22;34136;51.022;7.082;2024-01-07T17:43:47;0.50;99.90
48328;DHT22;34136;51.022;7.082;2024-01-07T17:46:33;0.40;99.90
48328;DHT22;34136;51.022;7.082;2024-01-07T17:49:19;0.40;99.90
48328;DHT22;34136;51.022;7.082;2024-01-07T17:52:05;0.50;99.90
48328;DHT22;34136;51.022;7.082;2024-01-07T17:54:51;0.50;99.90
48328;DHT22;34136;51.022;7.082;2024-01-07T17:57:37;0.50;99.90
48328;DHT22;34136;51.022;7.082;2024-01-07T18:00:23;0.50;99.90
48328;DHT22;34136;51.022;7.082;2024-01-07T18:03:08;0.50;99.90
48328;DHT22;34136;51.022;7.082;2024-01-07T18:05:54;0.60;99.90
48328;DHT22;34136;51.022;7.082;2024-01-07T18:08:40;0.60;99.90
48328;DHT22;34136;51.022;7.082;2024-01-07T18:11:26;0.60;99.90
48328;DHT22;34136;51.022;7.082;2024-01-07T18:14:12;0.60;99.90
48328;DHT22;34136;51.022;7.082;2024-01-07T18:16:58;0.60;99.90
48328;DHT22;34136;51.022;7.082;2024-01-07T18:19:44;0.60;99.90
48328;DHT22;34136;51.022;7.082;2024-01-07T18:22:30;0.60;99.90
48328;DHT22;34136;51.022;7.082;2024-01-07T18:25:16;0.50;99.90
48328;DHT22;34136;51.022;7.082;2024-01-07T18:28:02;0.50;99.90
48328;DHT22;34136;51.022;7.082;2024-01-07T18:30:48;0.60;99.90
48328;DHT22;34136;51.022;7.082;2024-01-07T18:33:34;0.50;99.90
48328;DHT22;34136;51.022;7.082;2024-01-07T18:36:20;0.50;99.90
48328;DHT22;34136;51.022;7.082;2024-01-07T18:39:06;0.50;99.90
48328;DHT22;34136;51.022;7.082;2024-01-07T18:41:55;0.60;99.90
48328;DHT22;34136;51.022;7.082;2024-01-07T18:44:41;0.70;99.90
48328;DHT22;34136;51.022;7.082;2024-01-07T18:47:27;0.70;99.90
48328;DHT22;34136;51.022;7.082;2024-01-07T18:50:13;0.70;99.90
48328;DHT22;34136;51.022;7.082;2024-01-07T18:52:59;0.70;99.90
48328;DHT22;34136;51.022;7.082;2024-01-07T18:55:45;0.70;99.90
48328;DHT22;34136;51.022;7.082;2024-01-07T18:58:31;0.60;99.90
48328;DHT22;34136;51.022;7.082;2024-01-07T19:01:17;0.60;99.90
48328;DHT22;34136;51.022;7.082;2024-01-07T19:04:03;0.70;99.90
48328;DHT22;34136;51.022;7.082;2024-01-07T19:06:49;0.70;99.90
48328;DHT22;34136;51.022;7.082;2024-01-07T19:09:35;0.70;99.90
48328;DHT22;34136;51.022;7.082;2024-01-07T19:12:21;0.70;99.90
48328;DHT22;34136;51.022;7.082;2024-01-07T19:15:07;0.70;99.90
48328;DHT22;34136;51.022;7.082;2024-01-07T19:17:54;0.70;99.90
48328;DHT22;34136;51.022;7.082;2024-01-07T19:20:40;0.70;99.90
48328;DHT22;34136;51.022;7.082;2024-01-07T19:23:25;0.60;99.90
48328;DHT22;34136;51.022;7.082;2024-01-07T19:26:12;0.60;99.90
48328;DHT22;34136;51.022;7.082;2024-01-07T19:28:58;0.60;99.90
48328;DHT22;34136;51.022;7.082;2024-01-07T19:31:44;0.60;99.90
48328;DHT22;34136;51.022;7.082;2024-01-07T19:34:29;0.60;99.90
48328;DHT22;34136;51.022;7.082;2024-01-07T19:37:15;0.70;99.90
48328;DHT22;34136;51.022;7.082;2024-01-07T19:40:01;0.70;99.90
48328;DHT22;34136;51.022;7.082;2024-01-07T19:42:47;0.70;99.90
